sensor_id;sensor_type;location;lat;lon;timestamp;pressure;altitude;pressure_sealevel;temperature;humidity
57442;BME280;43284;47.042;15.498;2023-03-19T00:00:54;97157.94;;;1.43;74.65
57442;BME280;43284;47.042;15.498;2023-03-19T00:03:20;97164.81;;;1.41;75.32
57442;BME280;43284;47.042;15.498;2023-03-19T00:05:52;97157.94;;;1.40;75.23
57442;BME280;43284;47.042;15.498;2023-03-19T00:08:18;97147.72;;;1.35;75.24
57442;BME280;43284;47.042;15.498;2023-03-19T00:10:43;97153.75;;;1.33;75.26
57442;BME280;43284;47.042;15.498;2023-03-19T00:13:09;97144.34;;;1.32;75.06
57442;BME280;43284;47.042;15.498;2023-03-19T00:15:36;97139.22;;;1.29;75.76
57442;BME280;43284;47.042;15.498;2023-03-19T00:18:05;97148.72;;;1.23;75.65
57442;BME280;43284;47.042;15.498;2023-03-19T00:20:31;97146.25;;;1.14;76.32
57442;BME280;43284;47.042;15.498;2023-03-19T00:22:56;97144.53;;;1.16;76.35
57442;BME280;43284;47.042;15.498;2023-03-19T00:25:22;97147.09;;;1.16;76.17
57442;BME280;43284;47.042;15.498;2023-03-19T00:27:51;97146.25;;;1.14;76.14
57442;BME280;43284;47.042;15.498;2023-03-19T00:30:25;97142.03;;;1.10;76.96
57442;BME280;43284;47.042;15.498;2023-03-19T00:32:51;97144.59;;;1.10;76.24
57442;BME280;43284;47.042;15.498;2023-03-19T00:35:19;97136.09;;;1.05;76.21
57442;BME280;43284;47.042;15.498;2023-03-19T00:37:45;97150.69;;;1.03;76.46
57442;BME280;43284;47.042;15.498;2023-03-19T00:40:11;97154.22;;;0.94;77.35
57442;BME280;43284;47.042;15.498;2023-03-19T00:42:37;97151.59;;;0.96;77.30
57442;BME280;43284;47.042;15.498;2023-03-19T00:45:03;97149.91;;;0.95;77.54
57442;BME280;43284;47.042;15.498;2023-03-19T00:47:29;97139.63;;;0.93;77.39
57442;BME280;43284;47.042;15.498;2023-03-19T00:49:55;97143.97;;;0.90;77.03
57442;BME280;43284;47.042;15.498;2023-03-19T00:52:24;97142.19;;;0.92;77.95
57442;BME280;43284;47.042;15.498;2023-03-19T00:54:53;97136.16;;;0.96;77.58
57442;BME280;43284;47.042;15.498;2023-03-19T00:57:18;97129.25;;;0.99;78.14
57442;BME280;43284;47.042;15.498;2023-03-19T00:59:47;97124.16;;;0.96;78.06
57442;BME280;43284;47.042;15.498;2023-03-19T01:02:14;97135.31;;;0.95;78.50
57442;BME280;43284;47.042;15.498;2023-03-19T01:04:42;97127.59;;;0.94;77.98
57442;BME280;43284;47.042;15.498;2023-03-19T01:07:17;97131.06;;;0.93;78.03
57442;BME280;43284;47.042;15.498;2023-03-19T01:09:43;97135.53;;;0.75;78.53
57442;BME280;43284;47.042;15.498;2023-03-19T01:12:08;97142.41;;;0.75;79.09
57442;BME280;43284;47.042;15.498;2023-03-19T01:14:34;97135.56;;;0.72;79.13
57442;BME280;43284;47.042;15.498;2023-03-19T01:17:08;97139.00;;;0.73;78.72
57442;BME280;43284;47.042;15.498;2023-03-19T01:19:34;97132.97;;;0.74;78.32
57442;BME280;43284;47.042;15.498;2023-03-19T01:21:59;97117.56;;;0.71;78.26
57442;BME280;43284;47.042;15.498;2023-03-19T01:24:28;97123.56;;;0.71;78.26
57442;BME280;43284;47.042;15.498;2023-03-19T01:26:54;97115.00;;;0.71;78.19
57442;BME280;43284;47.042;15.498;2023-03-19T01:29:20;97118.41;;;0.71;78.11
57442;BME280;43284;47.042;15.498;2023-03-19T01:31:45;97118.41;;;0.70;78.46
57442;BME280;43284;47.042;15.498;2023-03-19T01:34:11;97115.09;;;0.61;78.41
57442;BME280;43284;47.042;15.498;2023-03-19T01:36:37;97115.94;;;0.59;79.17
57442;BME280;43284;47.042;15.498;2023-03-19T01:39:03;97115.94;;;0.59;78.58
57442;BME280;43284;47.042;15.498;2023-03-19T01:41:28;97118.56;;;0.56;79.17
57442;BME280;43284;47.042;15.498;2023-03-19T01:43:54;97125.44;;;0.54;79.80
57442;BME280;43284;47.042;15.498;2023-03-19T01:46:29;97125.44;;;0.52;79.67
57442;BME280;43284;47.042;15.498;2023-03-19T01:48:57;97116.03;;;0.53;80.23
57442;BME280;43284;47.042;15.498;2023-03-19T01:51:29;97117.78;;;0.51;79.82
57442;BME280;43284;47.042;15.498;2023-03-19T01:53:59;97107.50;;;0.49;79.75
57442;BME280;43284;47.042;15.498;2023-03-19T01:56:33;97105.75;;;0.51;79.84
57442;BME280;43284;47.042;15.498;2023-03-19T01:59:22;97108.31;;;0.53;79.91
57442;BME280;43284;47.042;15.498;2023-03-19T02:01:57;97110.06;;;0.51;79.24
57442;BME280;43284;47.042;15.498;2023-03-19T02:04:26;97108.34;;;0.50;79.18
57442;BME280;43284;47.042;15.498;2023-03-19T02:06:54;97110.13;;;0.45;79.11
57442;BME280;43284;47.042;15.498;2023-03-19T02:09:21;97107.56;;;0.41;79.42
57442;BME280;43284;47.042;15.498;2023-03-19T02:11:49;97117.88;;;0.40;79.72
57442;BME280;43284;47.042;15.498;2023-03-19T02:14:15;97114.47;;;0.38;79.61
57442;BME280;43284;47.042;15.498;2023-03-19T02:16:41;97119.59;;;0.39;80.13
57442;BME280;43284;47.042;15.498;2023-03-19T02:19:11;97120.44;;;0.38;79.81
57442;BME280;43284;47.042;15.498;2023-03-19T02:21:38;97121.28;;;0.39;80.12
57442;BME280;43284;47.042;15.498;2023-03-19T02:24:21;97129.00;;;0.39;80.43
57442;BME280;43284;47.042;15.498;2023-03-19T02:26:50;97122.19;;;0.36;80.53
57442;BME280;43284;47.042;15.498;2023-03-19T02:29:16;97111.91;;;0.35;80.52
57442;BME280;43284;47.042;15.498;2023-03-19T02:31:42;97117.00;;;0.41;80.08
57442;BME280;43284;47.042;15.498;2023-03-19T02:36:52;97124.75;;;0.38;79.54
57442;BME280;43284;47.042;15.498;2023-03-19T02:39:26;97129.09;;;0.30;79.37
57442;BME280;43284;47.042;15.498;2023-03-19T02:41:53;97123.06;;;0.35;80.00
57442;BME280;43284;47.042;15.498;2023-03-19T02:44:20;97112.81;;;0.29;80.28
57442;BME280;43284;47.042;15.498;2023-03-19T02:46:46;97113.66;;;0.30;80.76
57442;BME280;43284;47.042;15.498;2023-03-19T02:49:11;97112.78;;;0.34;81.08
57442;BME280;43284;47.042;15.498;2023-03-19T02:51:37;97111.09;;;0.33;80.15
57442;BME280;43284;47.042;15.498;2023-03-19T02:54:03;97112.13;;;0.12;80.08
57442;BME280;43284;47.042;15.498;2023-03-19T02:56:30;97116.41;;;0.08;80.82
57442;BME280;43284;47.042;15.498;2023-03-19T02:58:55;97118.97;;;0.10;80.96
57442;BME280;43284;47.042;15.498;2023-03-19T03:01:21;97123.31;;;0.02;81.03
57442;BME280;43284;47.042;15.498;2023-03-19T03:03:47;97130.19;;;0.01;81.66
57442;BME280;43284;47.042;15.498;2023-03-19T03:06:12;97128.50;;;-0.05;81.02
57442;BME280;43284;47.042;15.498;2023-03-19T03:08:38;97117.38;;;-0.04;81.60
57442;BME280;43284;47.042;15.498;2023-03-19T03:11:04;97125.94;;;-0.05;81.42
57442;BME280;43284;47.042;15.498;2023-03-19T03:13:30;97115.66;;;-0.02;81.35
57442;BME280;43284;47.042;15.498;2023-03-19T03:15:56;97113.06;;;-0.02;81.82
57442;BME280;43284;47.042;15.498;2023-03-19T03:18:22;97107.91;;;0.03;81.83
57442;BME280;43284;47.042;15.498;2023-03-19T03:20:47;97112.16;;;0.04;81.20
57442;BME280;43284;47.042;15.498;2023-03-19T03:23:13;97121.69;;;-0.10;80.83
57442;BME280;43284;47.042;15.498;2023-03-19T03:25:39;97112.28;;;-0.10;82.03
57442;BME280;43284;47.042;15.498;2023-03-19T03:28:05;97112.28;;;-0.08;81.41
57442;BME280;43284;47.042;15.498;2023-03-19T03:30:31;97108.84;;;-0.10;81.61
57442;BME280;43284;47.042;15.498;2023-03-19T03:32:57;97117.41;;;-0.11;81.61
57442;BME280;43284;47.042;15.498;2023-03-19T03:35:22;97121.69;;;-0.10;82.43
57442;BME280;43284;47.042;15.498;2023-03-19T03:37:49;97113.16;;;-0.14;81.99
57442;BME280;43284;47.042;15.498;2023-03-19T03:40:15;97115.72;;;-0.15;82.21
57442;BME280;43284;47.042;15.498;2023-03-19T03:42:42;97125.19;;;-0.17;81.96
57442;BME280;43284;47.042;15.498;2023-03-19T03:45:08;97115.75;;;-0.20;82.34
57442;BME280;43284;47.042;15.498;2023-03-19T03:47:35;97125.19;;;-0.19;81.91
57442;BME280;43284;47.042;15.498;2023-03-19T03:50:02;97115.78;;;-0.25;81.69
57442;BME280;43284;47.042;15.498;2023-03-19T03:52:30;97119.25;;;-0.27;81.50
57442;BME280;43284;47.042;15.498;2023-03-19T03:54:58;97111.53;;;-0.27;82.31
57442;BME280;43284;47.042;15.498;2023-03-19T03:57:24;97112.41;;;-0.28;82.90
57442;BME280;43284;47.042;15.498;2023-03-19T03:59:50;97112.41;;;-0.31;82.17
57442;BME280;43284;47.042;15.498;2023-03-19T04:02:16;97109.00;;;-0.30;82.23
57442;BME280;43284;47.042;15.498;2023-03-19T04:04:41;97111.59;;;-0.35;82.96
57442;BME280;43284;47.042;15.498;2023-03-19T04:07:08;97108.19;;;-0.38;82.67
57442;BME280;43284;47.042;15.498;2023-03-19T04:09:34;97115.06;;;-0.45;83.05
57442;BME280;43284;47.042;15.498;2023-03-19T04:12:00;97114.19;;;-0.44;83.55
57442;BME280;43284;47.042;15.498;2023-03-19T04:14:26;97118.53;;;-0.48;83.58
57442;BME280;43284;47.042;15.498;2023-03-19T04:16:52;97114.22;;;-0.49;84.03
57442;BME280;43284;47.042;15.498;2023-03-19T04:19:18;97109.94;;;-0.48;83.46
57442;BME280;43284;47.042;15.498;2023-03-19T04:21:44;97117.66;;;-0.48;82.98
57442;BME280;43284;47.042;15.498;2023-03-19T04:24:11;97114.25;;;-0.50;83.09
57442;BME280;43284;47.042;15.498;2023-03-19T04:26:37;97118.53;;;-0.51;83.26
57442;BME280;43284;47.042;15.498;2023-03-19T04:29:03;97113.41;;;-0.54;83.50
57442;BME280;43284;47.042;15.498;2023-03-19T04:31:29;97114.25;;;-0.53;83.92
57442;BME280;43284;47.042;15.498;2023-03-19T04:33:55;97120.28;;;-0.54;84.26
57442;BME280;43284;47.042;15.498;2023-03-19T04:36:21;97112.56;;;-0.54;84.12
57442;BME280;43284;47.042;15.498;2023-03-19T04:38:46;97103.13;;;-0.48;83.83
57442;BME280;43284;47.042;15.498;2023-03-19T04:41:13;97111.63;;;-0.44;83.20
57442;BME280;43284;47.042;15.498;2023-03-19T04:43:40;97113.38;;;-0.48;84.42
57442;BME280;43284;47.042;15.498;2023-03-19T04:46:06;97107.38;;;-0.47;84.20
57442;BME280;43284;47.042;15.498;2023-03-19T04:48:33;97103.13;;;-0.48;83.62
57442;BME280;43284;47.042;15.498;2023-03-19T04:51:03;97099.72;;;-0.54;83.29
57442;BME280;43284;47.042;15.498;2023-03-19T04:53:28;97095.47;;;-0.60;83.48
57442;BME280;43284;47.042;15.498;2023-03-19T04:55:54;97098.91;;;-0.61;84.06
57442;BME280;43284;47.042;15.498;2023-03-19T04:58:21;97098.03;;;-0.60;85.06
57442;BME280;43284;47.042;15.498;2023-03-19T05:00:47;97107.47;;;-0.64;84.28
57442;BME280;43284;47.042;15.498;2023-03-19T05:03:14;97117.75;;;-0.65;84.14
57442;BME280;43284;47.042;15.498;2023-03-19T05:05:39;97110.94;;;-0.71;84.23
57442;BME280;43284;47.042;15.498;2023-03-19T05:08:05;97113.47;;;-0.66;84.05
57442;BME280;43284;47.042;15.498;2023-03-19T05:10:33;97114.34;;;-0.70;84.29
57442;BME280;43284;47.042;15.498;2023-03-19T05:12:59;97122.94;;;-0.76;84.58
57442;BME280;43284;47.042;15.498;2023-03-19T05:15:24;97120.38;;;-0.74;85.03
57442;BME280;43284;47.042;15.498;2023-03-19T05:17:50;97122.03;;;-0.70;84.85
57442;BME280;43284;47.042;15.498;2023-03-19T05:20:16;97121.19;;;-0.72;85.13
57442;BME280;43284;47.042;15.498;2023-03-19T05:22:42;97124.59;;;-0.70;85.33
57442;BME280;43284;47.042;15.498;2023-03-19T05:25:08;97122.88;;;-0.67;85.33
57442;BME280;43284;47.042;15.498;2023-03-19T05:27:34;97113.47;;;-0.66;85.12
57442;BME280;43284;47.042;15.498;2023-03-19T05:30:00;97109.16;;;-0.59;85.60
57442;BME280;43284;47.042;15.498;2023-03-19T05:32:27;97123.69;;;-0.55;85.41
57442;BME280;43284;47.042;15.498;2023-03-19T05:34:52;97127.13;;;-0.58;85.07
57442;BME280;43284;47.042;15.498;2023-03-19T05:37:18;97128.81;;;-0.57;85.71
57442;BME280;43284;47.042;15.498;2023-03-19T05:39:44;97119.44;;;-0.56;86.09
57442;BME280;43284;47.042;15.498;2023-03-19T05:42:10;97116.81;;;-0.50;85.75
57442;BME280;43284;47.042;15.498;2023-03-19T05:44:36;97124.50;;;-0.49;85.30
57442;BME280;43284;47.042;15.498;2023-03-19T05:47:02;97135.66;;;-0.50;84.98
57442;BME280;43284;47.042;15.498;2023-03-19T05:49:28;97144.22;;;-0.57;86.22
57442;BME280;43284;47.042;15.498;2023-03-19T05:51:53;97136.50;;;-0.49;86.41
57442;BME280;43284;47.042;15.498;2023-03-19T05:54:19;97139.03;;;-0.45;86.39
57442;BME280;43284;47.042;15.498;2023-03-19T05:56:45;97141.56;;;-0.37;86.90
57442;BME280;43284;47.042;15.498;2023-03-19T05:59:10;97147.50;;;-0.27;86.85
57442;BME280;43284;47.042;15.498;2023-03-19T06:01:36;97137.19;;;-0.21;86.96
57442;BME280;43284;47.042;15.498;2023-03-19T06:04:02;97141.41;;;-0.15;86.90
57442;BME280;43284;47.042;15.498;2023-03-19T06:06:28;97151.66;;;-0.06;87.04
57442;BME280;43284;47.042;15.498;2023-03-19T06:08:53;97142.16;;;0.02;87.02
57442;BME280;43284;47.042;15.498;2023-03-19T06:11:19;97136.94;;;0.13;87.20
57442;BME280;43284;47.042;15.498;2023-03-19T06:13:45;97138.56;;;0.22;87.16
57442;BME280;43284;47.042;15.498;2023-03-19T06:16:11;97139.38;;;0.31;86.96
57442;BME280;43284;47.042;15.498;2023-03-19T06:18:37;97139.34;;;0.36;87.12
57442;BME280;43284;47.042;15.498;2023-03-19T06:21:03;97147.00;;;0.42;87.09
57442;BME280;43284;47.042;15.498;2023-03-19T06:23:28;97146.94;;;0.48;87.16
57442;BME280;43284;47.042;15.498;2023-03-19T06:25:54;97147.72;;;0.56;86.98
57442;BME280;43284;47.042;15.498;2023-03-19T06:28:20;97144.19;;;0.67;86.80
57442;BME280;43284;47.042;15.498;2023-03-19T06:30:46;97138.94;;;0.76;86.62
57442;BME280;43284;47.042;15.498;2023-03-19T06:33:12;97134.59;;;0.84;86.40
57442;BME280;43284;47.042;15.498;2023-03-19T06:35:38;97140.50;;;0.92;85.87
57442;BME280;43284;47.042;15.498;2023-03-19T06:38:04;97146.38;;;1.05;85.98
57442;BME280;43284;47.042;15.498;2023-03-19T06:40:31;97134.25;;;1.13;85.74
57442;BME280;43284;47.042;15.498;2023-03-19T06:42:58;97144.47;;;1.22;85.64
57442;BME280;43284;47.042;15.498;2023-03-19T06:45:24;97140.03;;;1.34;86.02
57442;BME280;43284;47.042;15.498;2023-03-19T06:47:49;97134.78;;;1.40;85.19
57442;BME280;43284;47.042;15.498;2023-03-19T06:50:16;97138.94;;;1.50;84.88
57442;BME280;43284;47.042;15.498;2023-03-19T06:52:42;97138.78;;;1.64;84.12
57442;BME280;43284;47.042;15.498;2023-03-19T06:55:09;97140.28;;;1.79;82.54
57442;BME280;43284;47.042;15.498;2023-03-19T06:57:36;97135.88;;;1.87;82.47
57442;BME280;43284;47.042;15.498;2023-03-19T07:00:02;97147.78;;;1.94;82.10
57442;BME280;43284;47.042;15.498;2023-03-19T07:02:28;97138.81;;;2.20;79.79
57442;BME280;43284;47.042;15.498;2023-03-19T07:04:54;97136.06;;;2.31;78.88
57442;BME280;43284;47.042;15.498;2023-03-19T07:07:19;97136.03;;;2.32;78.93
57442;BME280;43284;47.042;15.498;2023-03-19T07:09:45;97126.47;;;2.39;78.83
57442;BME280;43284;47.042;15.498;2023-03-19T07:12:11;97127.91;;;2.55;78.62
57442;BME280;43284;47.042;15.498;2023-03-19T07:14:37;97133.69;;;2.68;78.26
57442;BME280;43284;47.042;15.498;2023-03-19T07:17:02;97132.63;;;2.80;77.86
57442;BME280;43284;47.042;15.498;2023-03-19T07:19:28;97132.41;;;2.92;78.19
57442;BME280;43284;47.042;15.498;2023-03-19T07:21:54;97122.28;;;3.26;77.46
57442;BME280;43284;47.042;15.498;2023-03-19T07:24:19;97120.41;;;3.33;76.70
57442;BME280;43284;47.042;15.498;2023-03-19T07:26:45;97121.94;;;3.43;76.88
57442;BME280;43284;47.042;15.498;2023-03-19T07:29:12;97130.09;;;3.65;75.82
57442;BME280;43284;47.042;15.498;2023-03-19T07:31:38;97125.78;;;4.03;74.37
57442;BME280;43284;47.042;15.498;2023-03-19T07:34:04;97123.75;;;4.52;72.04
57442;BME280;43284;47.042;15.498;2023-03-19T07:36:30;97120.59;;;4.73;71.31
57442;BME280;43284;47.042;15.498;2023-03-19T07:38:56;97116.91;;;4.84;70.26
57442;BME280;43284;47.042;15.498;2023-03-19T07:41:22;97120.88;;;5.27;69.24
57442;BME280;43284;47.042;15.498;2023-03-19T07:43:47;97123.75;;;5.49;66.23
57442;BME280;43284;47.042;15.498;2023-03-19T07:46:13;97131.50;;;5.78;66.47
57442;BME280;43284;47.042;15.498;2023-03-19T07:48:39;97118.75;;;6.01;63.60
57442;BME280;43284;47.042;15.498;2023-03-19T07:51:05;97118.19;;;6.19;63.69
57442;BME280;43284;47.042;15.498;2023-03-19T07:53:30;97120.22;;;6.36;63.23
57442;BME280;43284;47.042;15.498;2023-03-19T07:55:56;97114.88;;;6.40;62.18
57442;BME280;43284;47.042;15.498;2023-03-19T07:58:22;97113.28;;;6.63;61.78
57442;BME280;43284;47.042;15.498;2023-03-19T08:00:48;97109.38;;;6.76;63.35
57442;BME280;43284;47.042;15.498;2023-03-19T08:03:13;97106.00;;;6.73;61.03
57442;BME280;43284;47.042;15.498;2023-03-19T08:05:40;97102.03;;;6.88;61.53
57442;BME280;43284;47.042;15.498;2023-03-19T08:08:06;97104.31;;;6.97;60.78
57442;BME280;43284;47.042;15.498;2023-03-19T08:10:32;97101.25;;;7.11;59.82
57442;BME280;43284;47.042;15.498;2023-03-19T08:12:57;97098.88;;;7.28;59.83
57442;BME280;43284;47.042;15.498;2023-03-19T08:15:23;97099.25;;;7.41;59.16
57442;BME280;43284;47.042;15.498;2023-03-19T08:17:56;97104.63;;;7.60;57.76
57442;BME280;43284;47.042;15.498;2023-03-19T08:20:22;97105.25;;;7.67;59.11
57442;BME280;43284;47.042;15.498;2023-03-19T08:22:49;97098.75;;;7.78;57.33
57442;BME280;43284;47.042;15.498;2023-03-19T08:25:15;97089.75;;;7.87;58.83
57442;BME280;43284;47.042;15.498;2023-03-19T08:27:41;97090.03;;;7.79;58.33
57442;BME280;43284;47.042;15.498;2023-03-19T08:30:08;97086.34;;;7.85;57.57
57442;BME280;43284;47.042;15.498;2023-03-19T08:32:34;97076.34;;;7.96;58.57
57442;BME280;43284;47.042;15.498;2023-03-19T08:35:00;97076.59;;;8.12;57.85
57442;BME280;43284;47.042;15.498;2023-03-19T08:37:26;97076.75;;;8.30;56.88
57442;BME280;43284;47.042;15.498;2023-03-19T08:39:52;97088.94;;;8.51;55.75
57442;BME280;43284;47.042;15.498;2023-03-19T08:42:18;97093.25;;;8.73;55.79
57442;BME280;43284;47.042;15.498;2023-03-19T08:44:45;97104.56;;;8.72;54.62
57442;BME280;43284;47.042;15.498;2023-03-19T08:47:11;97111.22;;;8.79;54.54
57442;BME280;43284;47.042;15.498;2023-03-19T08:49:37;97108.88;;;8.73;54.73
57442;BME280;43284;47.042;15.498;2023-03-19T08:52:03;97115.28;;;8.86;55.56
57442;BME280;43284;47.042;15.498;2023-03-19T08:54:29;97117.94;;;8.84;53.75
57442;BME280;43284;47.042;15.498;2023-03-19T08:56:56;97125.69;;;9.06;55.15
57442;BME280;43284;47.042;15.498;2023-03-19T08:59:22;97117.22;;;9.01;52.71
57442;BME280;43284;47.042;15.498;2023-03-19T09:01:52;97119.56;;;9.07;53.46
57442;BME280;43284;47.042;15.498;2023-03-19T09:04:19;97123.84;;;9.08;52.56
57442;BME280;43284;47.042;15.498;2023-03-19T09:06:45;97116.50;;;9.37;55.10
57442;BME280;43284;47.042;15.498;2023-03-19T09:09:15;97105.66;;;9.27;52.26
57442;BME280;43284;47.042;15.498;2023-03-19T09:11:41;97099.66;;;9.25;53.97
57442;BME280;43284;47.042;15.498;2023-03-19T09:14:06;97102.22;;;9.46;53.70
57442;BME280;43284;47.042;15.498;2023-03-19T09:16:32;97107.66;;;9.60;52.91
57442;BME280;43284;47.042;15.498;2023-03-19T09:18:58;97096.38;;;9.79;54.06
57442;BME280;43284;47.042;15.498;2023-03-19T09:21:23;97103.69;;;9.89;53.87
57442;BME280;43284;47.042;15.498;2023-03-19T09:23:49;97108.00;;;9.72;52.50
57442;BME280;43284;47.042;15.498;2023-03-19T09:26:16;97111.34;;;9.75;52.35
57442;BME280;43284;47.042;15.498;2023-03-19T09:28:42;97100.38;;;9.86;51.19
57442;BME280;43284;47.042;15.498;2023-03-19T09:31:09;97105.25;;;9.75;52.07
57442;BME280;43284;47.042;15.498;2023-03-19T09:33:35;97095.84;;;10.08;52.07
57442;BME280;43284;47.042;15.498;2023-03-19T09:36:02;97086.19;;;9.92;51.61
57442;BME280;43284;47.042;15.498;2023-03-19T09:38:27;97093.25;;;9.89;51.56
57442;BME280;43284;47.042;15.498;2023-03-19T09:44:04;97079.44;;;10.24;51.42
57442;BME280;43284;47.042;15.498;2023-03-19T09:49:31;97073.28;;;10.44;49.27
57442;BME280;43284;47.042;15.498;2023-03-19T09:52:16;97072.97;;;10.50;51.21
57442;BME280;43284;47.042;15.498;2023-03-19T09:54:47;97076.25;;;10.71;53.90
57442;BME280;43284;47.042;15.498;2023-03-19T09:57:14;97083.19;;;10.72;51.72
57442;BME280;43284;47.042;15.498;2023-03-19T09:59:41;97080.59;;;10.72;52.28
57442;BME280;43284;47.042;15.498;2023-03-19T10:02:25;97076.53;;;11.00;51.41
57442;BME280;43284;47.042;15.498;2023-03-19T10:12:55;97063.56;;;11.47;51.12
57442;BME280;43284;47.042;15.498;2023-03-19T10:15:29;97057.09;;;11.70;47.64
57442;BME280;43284;47.042;15.498;2023-03-19T10:20:43;97047.28;;;11.74;47.21
57442;BME280;43284;47.042;15.498;2023-03-19T10:26:00;97048.50;;;12.00;48.36
57442;BME280;43284;47.042;15.498;2023-03-19T10:28:28;97045.59;;;12.21;46.79
57442;BME280;43284;47.042;15.498;2023-03-19T10:30:55;97043.06;;;12.19;44.24
57442;BME280;43284;47.042;15.498;2023-03-19T10:33:39;97045.44;;;12.54;44.28
57442;BME280;43284;47.042;15.498;2023-03-19T10:36:09;97043.91;;;12.80;43.32
57442;BME280;43284;47.042;15.498;2023-03-19T10:38:40;97053.22;;;12.55;45.52
57442;BME280;43284;47.042;15.498;2023-03-19T10:43:51;97040.31;;;12.81;45.86
57442;BME280;43284;47.042;15.498;2023-03-19T10:46:17;97041.97;;;13.12;44.23
57442;BME280;43284;47.042;15.498;2023-03-19T10:48:45;97036.34;;;13.18;43.69
57442;BME280;43284;47.042;15.498;2023-03-19T10:51:31;97035.41;;;13.19;44.46
57442;BME280;43284;47.042;15.498;2023-03-19T10:53:59;97037.47;;;13.57;43.71
57442;BME280;43284;47.042;15.498;2023-03-19T10:56:27;97031.34;;;13.14;41.92
57442;BME280;43284;47.042;15.498;2023-03-19T10:59:02;97032.50;;;13.24;44.01
57442;BME280;43284;47.042;15.498;2023-03-19T11:01:34;97022.56;;;13.29;44.09
57442;BME280;43284;47.042;15.498;2023-03-19T11:04:01;97025.09;;;13.16;44.83
57442;BME280;43284;47.042;15.498;2023-03-19T11:06:36;97023.88;;;13.08;42.68
57442;BME280;43284;47.042;15.498;2023-03-19T11:11:49;97014.69;;;13.01;44.49
57442;BME280;43284;47.042;15.498;2023-03-19T11:14:29;97013.84;;;13.14;45.81
57442;BME280;43284;47.042;15.498;2023-03-19T11:17:25;97008.50;;;13.16;43.52
57442;BME280;43284;47.042;15.498;2023-03-19T11:19:57;97010.41;;;13.28;43.62
57442;BME280;43284;47.042;15.498;2023-03-19T11:22:29;97010.28;;;13.15;43.82
57442;BME280;43284;47.042;15.498;2023-03-19T11:25:00;97015.25;;;13.20;43.79
57442;BME280;43284;47.042;15.498;2023-03-19T11:27:34;97008.31;;;13.19;43.77
57442;BME280;43284;47.042;15.498;2023-03-19T11:30:05;97008.44;;;13.32;46.09
57442;BME280;43284;47.042;15.498;2023-03-19T11:32:52;97004.84;;;13.47;44.87
57442;BME280;43284;47.042;15.498;2023-03-19T11:35:43;97003.84;;;13.77;43.61
57442;BME280;43284;47.042;15.498;2023-03-19T11:38:27;97005.34;;;13.81;44.34
57442;BME280;43284;47.042;15.498;2023-03-19T11:41:25;97008.63;;;13.70;44.32
57442;BME280;43284;47.042;15.498;2023-03-19T11:43:58;97006.69;;;13.59;42.62
57442;BME280;43284;47.042;15.498;2023-03-19T11:46:44;97004.13;;;13.72;43.40
57442;BME280;43284;47.042;15.498;2023-03-19T11:49:46;97003.25;;;13.86;42.84
57442;BME280;43284;47.042;15.498;2023-03-19T11:55:18;96998.09;;;13.85;43.20
57442;BME280;43284;47.042;15.498;2023-03-19T12:00:47;96984.16;;;13.97;44.04
57442;BME280;43284;47.042;15.498;2023-03-19T12:06:01;96972.88;;;14.22;44.94
57442;BME280;43284;47.042;15.498;2023-03-19T12:09:11;96962.00;;;14.41;43.79
57442;BME280;43284;47.042;15.498;2023-03-19T12:11:52;96967.03;;;14.44;44.27
57442;BME280;43284;47.042;15.498;2023-03-19T12:19:57;96973.19;;;14.96;42.41
57442;BME280;43284;47.042;15.498;2023-03-19T12:25:50;96955.06;;;15.04;41.55
57442;BME280;43284;47.042;15.498;2023-03-19T12:28:25;96949.59;;;15.20;40.81
57442;BME280;43284;47.042;15.498;2023-03-19T12:31:21;96955.41;;;15.49;42.03
57442;BME280;43284;47.042;15.498;2023-03-19T12:39:36;96955.28;;;15.88;41.74
57442;BME280;43284;47.042;15.498;2023-03-19T12:42:09;96955.94;;;16.02;41.54
57442;BME280;43284;47.042;15.498;2023-03-19T12:44:44;96953.94;;;16.06;40.12
57442;BME280;43284;47.042;15.498;2023-03-19T12:50:05;96961.03;;;16.52;40.57
57442;BME280;43284;47.042;15.498;2023-03-19T12:52:36;96962.75;;;16.64;40.31
57442;BME280;43284;47.042;15.498;2023-03-19T12:58:21;96970.94;;;16.37;37.92
57442;BME280;43284;47.042;15.498;2023-03-19T13:00:58;96967.56;;;16.35;39.04
57442;BME280;43284;47.042;15.498;2023-03-19T13:03:45;96961.81;;;16.30;39.16
57442;BME280;43284;47.042;15.498;2023-03-19T13:06:20;96956.53;;;16.30;39.66
57442;BME280;43284;47.042;15.498;2023-03-19T13:08:54;96960.63;;;16.34;39.20
57442;BME280;43284;47.042;15.498;2023-03-19T13:12:00;96959.31;;;16.04;38.38
57442;BME280;43284;47.042;15.498;2023-03-19T13:20:26;96951.75;;;15.63;38.98
57442;BME280;43284;47.042;15.498;2023-03-19T13:22:57;96961.69;;;15.59;40.08
57442;BME280;43284;47.042;15.498;2023-03-19T13:25:45;96959.66;;;15.63;40.25
57442;BME280;43284;47.042;15.498;2023-03-19T13:28:25;96956.09;;;15.64;40.26
57442;BME280;43284;47.042;15.498;2023-03-19T13:31:03;96956.19;;;15.62;40.27
57442;BME280;43284;47.042;15.498;2023-03-19T13:33:30;96954.38;;;15.76;40.68
57442;BME280;43284;47.042;15.498;2023-03-19T13:36:00;96943.72;;;15.77;40.61
57442;BME280;43284;47.042;15.498;2023-03-19T13:38:41;96950.66;;;15.78;40.76
57442;BME280;43284;47.042;15.498;2023-03-19T13:44:17;96936.16;;;15.73;40.15
57442;BME280;43284;47.042;15.498;2023-03-19T13:46:44;96931.28;;;15.79;40.21
57442;BME280;43284;47.042;15.498;2023-03-19T13:49:32;96941.84;;;15.79;40.60
57442;BME280;43284;47.042;15.498;2023-03-19T13:54:40;96933.19;;;15.77;40.56
57442;BME280;43284;47.042;15.498;2023-03-19T13:59:41;96928.25;;;15.73;40.56
57442;BME280;43284;47.042;15.498;2023-03-19T14:04:57;96927.88;;;15.90;40.90
57442;BME280;43284;47.042;15.498;2023-03-19T14:07:29;96927.81;;;16.03;41.63
57442;BME280;43284;47.042;15.498;2023-03-19T14:12:37;96918.09;;;16.03;40.77
57442;BME280;43284;47.042;15.498;2023-03-19T14:22:53;96922.25;;;15.95;40.36
57442;BME280;43284;47.042;15.498;2023-03-19T14:25:24;96924.88;;;15.95;42.50
57442;BME280;43284;47.042;15.498;2023-03-19T14:27:56;96924.16;;;15.93;40.54